Time;durP1;ratioP1;P1;durP2;ratioP2;P2;SDS_P1;SDS_P2;PMS_P1;PMS_P2;Temp;Humidity;BMP_temperature;BMP_pressure;BME280_temperature;BME280_humidity;BME280_pressure;Samples;Min_cycle;Max_cycle;Signal;HPM_P1;HPM_P2
2022/10/08 00:01:08;;;;;;;7.60;1.73;;;12.60;99.90;;;;;;5134608;27;20042;-64
2022/10/08 00:03:37;;;;;;;9.60;1.70;;;12.60;99.90;;;;;;5134511;27;20494;-64
2022/10/08 00:06:10;;;;;;;6.85;1.77;;;12.60;99.90;;;;;;5133303;27;20043;-64
2022/10/08 00:08:38;;;;;;;4.00;1.60;;;12.60;99.90;;;;;;5115543;27;20047;-64
2022/10/08 00:11:07;;;;;;;4.93;1.48;;;12.50;99.90;;;;;;5134265;27;20043;-64
2022/10/08 00:13:40;;;;;;;5.75;2.00;;;12.50;99.90;;;;;;5134302;27;20039;-64
2022/10/08 00:16:13;;;;;;;6.03;1.50;;;12.50;99.90;;;;;;5113859;27;20035;-64
2022/10/08 00:18:41;;;;;;;3.35;1.42;;;12.50;99.90;;;;;;5132865;27;20042;-64
2022/10/08 00:21:32;;;;;;;4.88;1.02;;;12.40;99.90;;;;;;5134234;27;20499;-65
2022/10/08 00:24:00;;;;;;;6.00;1.45;;;12.40;99.90;;;;;;5132856;27;20095;-64
2022/10/08 00:26:28;;;;;;;5.43;1.60;;;12.40;99.90;;;;;;5132626;27;20047;-64
2022/10/08 00:28:57;;;;;;;6.10;1.30;;;12.40;99.90;;;;;;5115751;27;20662;-64
2022/10/08 00:31:29;;;;;;;2.58;1.20;;;12.40;99.90;;;;;;5132699;27;20130;-64
2022/10/08 00:33:58;;;;;;;5.20;1.20;;;12.40;99.90;;;;;;5132729;27;20046;-65
2022/10/08 00:36:26;;;;;;;4.80;1.45;;;12.40;99.90;;;;;;5115881;27;20039;-64
2022/10/08 00:39:01;;;;;;;3.25;1.48;;;12.40;99.90;;;;;;5132834;27;20126;-64
2022/10/08 00:41:29;;;;;;;5.80;1.50;;;12.40;99.90;;;;;;5132572;27;20046;-64
2022/10/08 00:44:02;;;;;;;3.83;1.40;;;12.40;99.90;;;;;;5133751;27;20047;-64
2022/10/08 00:46:36;;;;;;;8.90;2.75;;;12.40;99.90;;;;;;5131794;27;20043;-64
2022/10/08 00:49:13;;;;;;;5.60;1.70;;;12.40;99.90;;;;;;5132344;27;20043;-64
2022/10/08 00:51:45;;;;;;;6.97;1.77;;;12.40;99.90;;;;;;5132673;27;20114;-64
2022/10/08 00:54:12;;;;;;;5.28;1.50;;;12.40;99.90;;;;;;5132653;27;20039;-64
2022/10/08 00:56:39;;;;;;;5.65;1.92;;;12.40;99.90;;;;;;5132236;27;20039;-65
2022/10/08 00:59:07;;;;;;;6.05;1.55;;;12.40;99.90;;;;;;5133779;27;20050;-65
2022/10/08 01:01:33;;;;;;;5.68;2.03;;;12.40;99.90;;;;;;5115260;27;20039;-65
2022/10/08 01:04:04;;;;;;;6.43;2.03;;;12.40;99.90;;;;;;5133537;27;20423;-64
2022/10/08 01:06:43;;;;;;;5.28;2.17;;;12.50;99.90;;;;;;5132058;27;20521;-64
2022/10/08 01:09:18;;;;;;;7.70;1.85;;;12.50;99.90;;;;;;5132255;28;20039;-64
2022/10/08 01:11:57;;;;;;;7.40;2.10;;;12.50;99.90;;;;;;5115013;28;20043;-64
2022/10/08 01:14:31;;;;;;;7.53;2.28;;;12.50;99.90;;;;;;5131300;27;20073;-64
2022/10/08 01:17:36;;;;;;;5.82;2.58;;;12.50;99.90;;;;;;5132253;28;20145;-64
2022/10/08 01:20:40;;;;;;;7.72;3.13;;;12.50;99.90;;;;;;5133553;27;20071;-64
2022/10/08 01:23:32;;;;;;;10.77;3.25;;;12.50;99.90;;;;;;5096299;28;20058;-65
2022/10/08 01:26:13;;;;;;;7.45;3.20;;;12.60;99.90;;;;;;5109693;28;20399;-65
2022/10/08 01:29:01;;;;;;;10.23;3.75;;;12.50;99.90;;;;;;5111626;28;20064;-64
2022/10/08 01:31:36;;;;;;;10.02;4.05;;;12.60;99.90;;;;;;5112972;28;20042;-64
2022/10/08 01:34:34;;;;;;;10.82;3.35;;;12.60;99.90;;;;;;5112770;28;20061;-64
2022/10/08 01:37:03;;;;;;;10.00;3.83;;;12.60;99.90;;;;;;5116767;28;20439;-64
2022/10/08 01:39:34;;;;;;;9.15;3.33;;;12.60;99.90;;;;;;5131943;28;20039;-65
2022/10/08 01:42:02;;;;;;;11.90;3.10;;;12.60;99.90;;;;;;5114908;28;20046;-65
2022/10/08 01:44:36;;;;;;;6.63;2.83;;;12.60;99.90;;;;;;5112648;28;20035;-65
2022/10/08 01:47:07;;;;;;;9.55;2.83;;;12.60;99.90;;;;;;5132066;28;20487;-64
2022/10/08 01:49:42;;;;;;;7.68;2.72;;;12.60;99.90;;;;;;5115703;27;20046;-64
2022/10/08 01:52:30;;;;;;;8.60;2.40;;;12.60;99.90;;;;;;5137240;27;20411;-64
2022/10/08 01:55:03;;;;;;;8.20;2.25;;;12.60;99.90;;;;;;5135895;27;20490;-64
2022/10/08 01:57:32;;;;;;;9.30;4.03;;;12.50;99.90;;;;;;5136051;27;20038;-64
2022/10/08 02:00:09;;;;;;;14.35;3.80;;;12.50;99.90;;;;;;5137068;27;20079;-64
2022/10/08 02:02:35;;;;;;;7.80;3.53;;;12.50;99.90;;;;;;5136962;27;20122;-65
2022/10/08 02:05:03;;;;;;;12.70;3.67;;;12.50;99.90;;;;;;5118531;27;20134;-65
2022/10/08 02:07:32;;;;;;;10.38;3.38;;;12.50;99.90;;;;;;5135670;27;20039;-64
2022/10/08 02:10:10;;;;;;;9.63;3.30;;;12.40;99.90;;;;;;5135498;27;20051;-64
2022/10/08 02:12:38;;;;;;;10.23;3.90;;;12.30;99.90;;;;;;5135591;27;20039;-65
2022/10/08 02:15:07;;;;;;;17.02;5.35;;;12.20;99.90;;;;;;5134663;27;20035;-64
2022/10/08 02:18:05;;;;;;;7.78;2.67;;;12.10;99.90;;;;;;5136588;27;20371;-64
2022/10/08 02:20:40;;;;;;;8.38;2.83;;;12.00;99.90;;;;;;5136734;27;20043;-64
2022/10/08 02:23:05;;;;;;;10.23;3.25;;;11.90;99.90;;;;;;5136735;27;20115;-64
2022/10/08 02:26:08;;;;;;;8.10;2.63;;;11.70;99.90;;;;;;5136418;27;20122;-64
2022/10/08 02:28:49;;;;;;;13.52;2.83;;;11.70;99.90;;;;;;5135247;27;20039;-65
2022/10/08 02:31:40;;;;;;;11.50;2.75;;;11.60;99.90;;;;;;5117897;27;20050;-64
2022/10/08 02:34:23;;;;;;;10.05;2.60;;;11.60;99.90;;;;;;5134227;27;20039;-65
2022/10/08 02:37:15;;;;;;;8.10;2.28;;;11.40;99.90;;;;;;5118026;27;20060;-64
2022/10/08 02:39:48;;;;;;;9.15;2.47;;;11.40;99.90;;;;;;5135058;27;20042;-64
2022/10/08 02:42:18;;;;;;;9.00;2.58;;;11.40;99.90;;;;;;5135055;27;20053;-64
2022/10/08 02:45:00;;;;;;;8.95;3.42;;;11.30;99.90;;;;;;5133754;27;20926;-64
2022/10/08 02:47:31;;;;;;;12.85;3.63;;;11.30;99.90;;;;;;5135113;27;20117;-64
2022/10/08 02:50:01;;;;;;;17.60;4.53;;;11.30;99.90;;;;;;5134874;27;20043;-64
2022/10/08 02:52:34;;;;;;;9.50;4.00;;;11.30;99.90;;;;;;5134820;27;20039;-64
2022/10/08 02:55:05;;;;;;;15.77;4.55;;;11.30;99.90;;;;;;5134748;27;20039;-64
2022/10/08 02:57:43;;;;;;;16.95;4.25;;;11.30;99.90;;;;;;5136162;27;20050;-64
2022/10/08 03:00:10;;;;;;;13.85;3.63;;;11.30;99.90;;;;;;5117805;27;20401;-64
2022/10/08 03:02:45;;;;;;;10.75;2.50;;;11.30;99.90;;;;;;5133718;27;20057;-65
2022/10/08 03:05:18;;;;;;;9.75;2.72;;;11.20;99.90;;;;;;5134713;27;20413;-64
2022/10/08 03:07:47;;;;;;;9.25;2.70;;;11.20;99.90;;;;;;5135744;27;20067;-64
2022/10/08 03:10:13;;;;;;;8.60;2.50;;;11.20;99.90;;;;;;5135578;27;20039;-64
2022/10/08 03:12:39;;;;;;;9.82;2.20;;;11.20;99.90;;;;;;5117276;27;20046;-64
2022/10/08 03:15:07;;;;;;;11.73;2.58;;;11.10;99.90;;;;;;5132082;27;20047;-64
2022/10/08 03:17:40;;;;;;;11.30;2.90;;;11.10;99.90;;;;;;5134465;27;20117;-64
2022/10/08 03:20:08;;;;;;;12.05;2.97;;;11.00;99.90;;;;;;5135437;27;20039;-64
2022/10/08 03:22:35;;;;;;;12.10;2.53;;;11.00;99.90;;;;;;5135447;27;20459;-64
2022/10/08 03:25:00;;;;;;;13.50;3.03;;;11.00;99.90;;;;;;5135546;27;20050;-64
2022/10/08 03:27:26;;;;;;;12.45;2.97;;;11.00;99.90;;;;;;5135221;27;20051;-64
2022/10/08 03:29:56;;;;;;;14.07;2.97;;;11.10;99.90;;;;;;5134013;27;20068;-64
2022/10/08 03:32:23;;;;;;;13.15;4.00;;;11.10;99.90;;;;;;5134082;27;20463;-64
2022/10/08 03:34:49;;;;;;;15.93;4.05;;;11.20;99.90;;;;;;5133810;27;20555;-64
2022/10/08 03:37:14;;;;;;;12.52;3.88;;;11.20;99.90;;;;;;5135082;27;20125;-64
2022/10/08 03:39:42;;;;;;;15.98;4.47;;;11.30;99.90;;;;;;5133867;27;20126;-64
2022/10/08 03:42:08;;;;;;;16.08;4.88;;;11.30;99.90;;;;;;5135305;27;20058;-64
2022/10/08 03:44:34;;;;;;;17.55;5.40;;;11.30;99.90;;;;;;5131881;27;20452;-64
2022/10/08 03:47:00;;;;;;;13.10;4.78;;;11.40;99.90;;;;;;5133686;27;20043;-64
2022/10/08 03:49:26;;;;;;;14.25;5.20;;;11.40;99.90;;;;;;5133557;27;20105;-64
2022/10/08 03:51:52;;;;;;;13.10;4.40;;;11.40;99.90;;;;;;5133490;27;20039;-64
2022/10/08 03:54:18;;;;;;;13.30;4.65;;;11.40;99.90;;;;;;5133396;27;20164;-64
2022/10/08 03:56:43;;;;;;;12.85;4.72;;;11.50;99.90;;;;;;5134784;27;20110;-65
2022/10/08 03:59:09;;;;;;;15.98;4.53;;;11.50;99.90;;;;;;5133377;27;20494;-65
2022/10/08 04:01:35;;;;;;;16.75;4.90;;;11.50;99.90;;;;;;5133262;27;20043;-65
2022/10/08 04:04:01;;;;;;;10.15;3.90;;;11.50;99.90;;;;;;5133230;27;20114;-65
2022/10/08 04:06:29;;;;;;;10.25;4.05;;;11.50;99.90;;;;;;5133273;27;20049;-65
2022/10/08 04:09:00;;;;;;;11.50;3.85;;;11.50;99.90;;;;;;5127209;27;20039;-65
2022/10/08 04:11:27;;;;;;;9.80;4.03;;;11.50;99.90;;;;;;5112554;28;20041;-65
2022/10/08 04:13:53;;;;;;;17.05;6.00;;;11.60;99.90;;;;;;5113611;28;20042;-65
2022/10/08 04:16:19;;;;;;;14.35;4.55;;;11.60;99.90;;;;;;5110162;28;20036;-65
2022/10/08 04:18:46;;;;;;;12.07;3.83;;;11.60;99.90;;;;;;5112519;28;20081;-65
2022/10/08 04:21:14;;;;;;;16.40;4.95;;;11.60;99.90;;;;;;5113662;28;20043;-65
2022/10/08 04:23:42;;;;;;;9.25;4.40;;;11.60;99.90;;;;;;5112439;28;20047;-65
2022/10/08 04:26:09;;;;;;;15.05;4.55;;;11.60;99.90;;;;;;5095121;28;20046;-65
2022/10/08 04:28:36;;;;;;;14.45;3.60;;;11.50;99.90;;;;;;5112097;28;20096;-65
2022/10/08 04:31:08;;;;;;;17.95;4.45;;;11.60;99.90;;;;;;5112167;28;20159;-65
2022/10/08 04:33:35;;;;;;;11.30;4.60;;;11.50;99.90;;;;;;5113709;28;20035;-65
2022/10/08 04:36:05;;;;;;;13.05;4.68;;;11.50;99.90;;;;;;5113472;28;20047;-65
2022/10/08 04:38:31;;;;;;;16.10;4.32;;;11.40;99.90;;;;;;5113483;28;20065;-65
2022/10/08 04:41:05;;;;;;;13.95;3.35;;;11.40;99.90;;;;;;5112026;28;20040;-65
2022/10/08 04:43:33;;;;;;;11.05;2.97;;;11.30;99.90;;;;;;5112031;28;20071;-64
2022/10/08 04:45:59;;;;;;;9.77;2.95;;;11.20;99.90;;;;;;5111070;27;20557;-65
2022/10/08 04:48:25;;;;;;;9.73;3.15;;;11.20;99.90;;;;;;5111962;28;20082;-65
2022/10/08 04:51:01;;;;;;;9.02;2.75;;;11.10;99.90;;;;;;5095035;28;20044;-65
2022/10/08 04:53:28;;;;;;;11.70;2.53;;;11.00;99.90;;;;;;5113365;28;20059;-64
2022/10/08 04:55:55;;;;;;;8.02;2.45;;;11.00;99.90;;;;;;5112149;28;20104;-64
2022/10/08 04:58:23;;;;;;;13.75;3.13;;;10.90;99.90;;;;;;5111884;28;20040;-65
2022/10/08 05:00:48;;;;;;;19.92;3.50;;;10.80;99.90;;;;;;5111991;28;20039;-64
2022/10/08 05:03:14;;;;;;;15.65;4.30;;;10.70;99.90;;;;;;5113097;28;20042;-64
2022/10/08 05:05:42;;;;;;;14.00;4.10;;;10.70;99.90;;;;;;5111750;28;20170;-65
2022/10/08 05:08:08;;;;;;;18.42;3.78;;;10.60;99.90;;;;;;5113222;28;20024;-64
2022/10/08 05:10:34;;;;;;;11.52;3.00;;;10.60;99.90;;;;;;5113077;28;20050;-65
2022/10/08 05:13:00;;;;;;;15.68;3.13;;;10.50;99.90;;;;;;5112868;28;20078;-64
2022/10/08 05:15:26;;;;;;;12.68;2.92;;;10.50;99.90;;;;;;5110741;28;20039;-64
2022/10/08 05:17:52;;;;;;;16.52;3.10;;;10.50;99.90;;;;;;5113130;28;20051;-65
2022/10/08 05:20:18;;;;;;;10.15;3.33;;;10.40;99.90;;;;;;5111814;28;20039;-65
2022/10/08 05:22:44;;;;;;;13.25;2.70;;;10.40;99.90;;;;;;5112912;28;20456;-65
2022/10/08 05:25:10;;;;;;;14.45;2.50;;;10.30;99.90;;;;;;5114873;28;20040;-65
2022/10/08 05:27:36;;;;;;;14.63;3.10;;;10.30;99.90;;;;;;5116738;28;20388;-65
2022/10/08 05:30:02;;;;;;;9.70;3.05;;;10.30;99.90;;;;;;5115696;28;20156;-64
2022/10/08 05:32:28;;;;;;;15.35;3.15;;;10.30;99.90;;;;;;5115763;28;20558;-64
2022/10/08 05:34:54;;;;;;;9.85;2.90;;;10.30;99.90;;;;;;5117152;28;20106;-64
2022/10/08 05:37:20;;;;;;;17.20;4.15;;;10.30;99.90;;;;;;5115495;28;20040;-64
2022/10/08 05:39:47;;;;;;;11.40;2.67;;;10.20;99.90;;;;;;5115536;28;20071;-65
2022/10/08 05:42:13;;;;;;;10.73;2.47;;;10.20;99.90;;;;;;5115684;28;20043;-64
2022/10/08 05:44:39;;;;;;;13.30;3.38;;;10.20;99.90;;;;;;5096428;28;20039;-64
2022/10/08 05:47:05;;;;;;;19.25;3.95;;;10.20;99.90;;;;;;5098410;28;20043;-65
2022/10/08 05:49:31;;;;;;;17.38;3.28;;;10.20;99.90;;;;;;5116551;28;20039;-65
2022/10/08 05:51:57;;;;;;;18.58;3.53;;;10.20;99.90;;;;;;5115455;28;20036;-64
2022/10/08 05:54:23;;;;;;;14.07;3.53;;;10.20;99.90;;;;;;5115244;28;20051;-64
2022/10/08 05:56:49;;;;;;;16.52;3.30;;;10.10;99.90;;;;;;5115524;28;20042;-65
2022/10/08 05:59:18;;;;;;;13.75;2.67;;;10.20;99.90;;;;;;5098215;28;20416;-64
2022/10/08 06:01:44;;;;;;;9.82;2.40;;;10.10;99.90;;;;;;5115068;28;20039;-64
2022/10/08 06:04:10;;;;;;;14.55;2.70;;;10.10;99.90;;;;;;5116327;28;20050;-64
2022/10/08 06:06:38;;;;;;;14.85;2.97;;;10.10;99.90;;;;;;5115304;28;20044;-65
2022/10/08 06:09:06;;;;;;;17.35;4.30;;;10.10;99.90;;;;;;5097659;28;20043;-64
2022/10/08 06:11:34;;;;;;;18.00;3.50;;;10.10;99.90;;;;;;5115137;28;20081;-64
2022/10/08 06:14:01;;;;;;;13.88;3.08;;;10.10;99.90;;;;;;5115194;28;20535;-64
2022/10/08 06:16:28;;;;;;;18.25;4.28;;;10.20;99.90;;;;;;5113979;28;20067;-65
2022/10/08 06:18:54;;;;;;;14.93;3.70;;;10.20;99.90;;;;;;5114980;28;20036;-64
2022/10/08 06:21:23;;;;;;;10.50;3.30;;;10.20;99.90;;;;;;5116128;28;20039;-64
2022/10/08 06:23:52;;;;;;;15.32;4.50;;;10.20;99.90;;;;;;5116067;28;20039;-64
2022/10/08 06:26:20;;;;;;;16.70;4.07;;;10.20;99.90;;;;;;5115789;28;20036;-64
2022/10/08 06:28:47;;;;;;;14.50;3.33;;;10.20;99.90;;;;;;5114383;28;20075;-63
2022/10/08 06:31:14;;;;;;;14.50;2.80;;;10.20;99.90;;;;;;5115736;28;20105;-64
2022/10/08 06:33:40;;;;;;;9.38;3.13;;;10.30;99.90;;;;;;5114576;28;20061;-65
2022/10/08 06:36:14;;;;;;;11.27;3.45;;;10.40;99.90;;;;;;5115773;28;20042;-65
2022/10/08 06:38:40;;;;;;;9.73;3.35;;;10.60;99.90;;;;;;5114602;28;20051;-65
2022/10/08 06:41:06;;;;;;;15.13;2.70;;;10.80;99.90;;;;;;5114794;28;20047;-65
2022/10/08 06:43:32;;;;;;;11.90;2.63;;;11.00;99.90;;;;;;5114522;28;20063;-65
2022/10/08 06:46:02;;;;;;;6.65;2.15;;;11.00;99.90;;;;;;5120179;27;20063;-65
2022/10/08 06:48:28;;;;;;;11.38;2.33;;;11.10;99.90;;;;;;5111361;27;20039;-65
2022/10/08 06:51:03;;;;;;;10.07;2.50;;;11.20;99.90;;;;;;5134618;27;20092;-65
2022/10/08 06:53:29;;;;;;;13.60;3.08;;;11.30;99.90;;;;;;5135821;27;20031;-65
2022/10/08 06:56:04;;;;;;;10.88;2.03;;;11.40;99.90;;;;;;5134624;27;20043;-65
2022/10/08 06:58:34;;;;;;;7.60;2.30;;;11.50;99.90;;;;;;5135971;27;20083;-65
2022/10/08 07:01:04;;;;;;;10.50;2.80;;;11.50;99.90;;;;;;5135920;27;20042;-65
2022/10/08 07:03:31;;;;;;;10.02;2.70;;;11.50;99.90;;;;;;5134436;27;20095;-65
2022/10/08 07:06:01;;;;;;;14.20;2.92;;;11.50;99.90;;;;;;5134762;27;20421;-65
2022/10/08 07:08:27;;;;;;;;;;;11.40;99.90;;;;;;5117792;27;20035;-65
2022/10/08 07:11:02;;;;;;;11.10;2.72;;;11.50;99.90;;;;;;5135748;27;19919;-65
2022/10/08 07:13:28;;;;;;;14.48;2.15;;;11.40;99.90;;;;;;5134448;27;20131;-65
2022/10/08 07:16:07;;;;;;;8.25;2.08;;;11.50;99.90;;;;;;5132152;27;20074;-65
2022/10/08 07:18:35;;;;;;;9.43;1.88;;;11.50;99.90;;;;;;5134579;27;20039;-65
2022/10/08 07:21:02;;;;;;;8.82;1.98;;;11.50;99.90;;;;;;5134313;27;20047;-65
2022/10/08 07:23:28;;;;;;;10.20;1.55;;;11.60;99.90;;;;;;5134390;27;20035;-64
2022/10/08 07:25:58;;;;;;;10.15;2.50;;;11.70;99.90;;;;;;5134193;27;20467;-65
2022/10/08 07:28:28;;;;;;;7.00;1.83;;;11.80;99.90;;;;;;5135009;27;20051;-64
2022/10/08 07:30:53;;;;;;;7.90;1.58;;;11.90;99.90;;;;;;5134060;27;20054;-65
2022/10/08 07:33:19;;;;;;;5.85;1.33;;;11.90;99.90;;;;;;5116922;27;20039;-65
2022/10/08 07:35:46;;;;;;;10.73;1.58;;;12.00;99.90;;;;;;5115735;27;20150;-65
2022/10/08 07:38:17;;;;;;;6.68;2.03;;;12.10;99.90;;;;;;5133798;27;20035;-64
2022/10/08 07:40:43;;;;;;;;;;;12.20;99.90;;;;;;5135690;27;20675;-64
2022/10/08 07:43:09;;;;;;;7.90;2.30;;;12.30;99.90;;;;;;5135024;27;20378;-64
2022/10/08 07:45:36;;;;;;;7.18;1.60;;;12.30;99.90;;;;;;5131631;27;20049;-64
2022/10/08 07:48:02;;;;;;;8.05;1.60;;;12.40;99.90;;;;;;5133241;27;20378;-63
2022/10/08 07:50:28;;;;;;;8.82;1.75;;;12.50;99.90;;;;;;5133497;27;20039;-64
2022/10/08 07:52:53;;;;;;;6.43;1.55;;;12.60;99.90;;;;;;5133570;27;20039;-64
2022/10/08 07:55:20;;;;;;;6.72;1.45;;;12.70;99.90;;;;;;5133571;27;20079;-62
2022/10/08 07:57:46;;;;;;;5.75;1.55;;;12.90;99.90;;;;;;5133310;27;20047;-62
2022/10/08 08:00:12;;;;;;;4.25;1.13;;;13.00;99.90;;;;;;5134918;27;20039;-61
2022/10/08 08:02:38;;;;;;;7.50;1.40;;;13.20;99.90;;;;;;5133467;27;20047;-62
2022/10/08 08:05:04;;;;;;;7.80;2.13;;;13.60;99.90;;;;;;5134787;27;20043;-62
2022/10/08 08:07:30;;;;;;;6.47;1.52;;;14.30;99.90;;;;;;5116035;27;20043;-62
2022/10/08 08:09:56;;;;;;;6.40;1.17;;;14.60;99.90;;;;;;5133277;27;20095;-62
2022/10/08 08:12:22;;;;;;;6.20;1.10;;;14.80;99.90;;;;;;5133447;27;20088;-62
2022/10/08 08:14:47;;;;;;;7.80;1.25;;;15.00;99.90;;;;;;5132444;27;20788;-62
2022/10/08 08:17:13;;;;;;;6.07;1.27;;;15.40;99.90;;;;;;5133066;27;20042;-61
2022/10/08 08:19:39;;;;;;;7.07;1.33;;;15.60;99.90;;;;;;5134362;27;20031;-61
2022/10/08 08:22:06;;;;;;;8.10;1.10;;;15.90;99.90;;;;;;5131749;27;20041;-61
2022/10/08 08:24:31;;;;;;;8.20;1.30;;;16.20;99.90;;;;;;5132649;27;20039;-61
2022/10/08 08:26:57;;;;;;;4.03;1.25;;;16.50;99.90;;;;;;5132021;27;20053;-61
2022/10/08 08:29:23;;;;;;;4.68;1.00;;;16.80;99.90;;;;;;5119465;27;20120;-61
2022/10/08 08:31:49;;;;;;;6.95;1.65;;;17.20;99.90;;;;;;5121852;27;20088;-62
2022/10/08 08:34:23;;;;;;;9.80;1.20;;;17.60;99.90;;;;;;5131677;27;20034;-62
2022/10/08 08:36:52;;;;;;;6.47;1.45;;;18.10;99.90;;;;;;5114388;27;20043;-62
2022/10/08 08:39:26;;;;;;;4.00;1.17;;;18.30;99.90;;;;;;5119466;27;20297;-62
2022/10/08 08:42:23;;;;;;;6.57;1.63;;;18.50;99.90;;;;;;5132145;27;20041;-63
2022/10/08 08:44:58;;;;;;;6.38;1.13;;;18.70;99.90;;;;;;5109671;28;20083;-63
2022/10/08 08:47:44;;;;;;;10.77;1.13;;;18.90;99.90;;;;;;5111915;28;20090;-63
2022/10/08 08:50:30;;;;;;;5.95;1.10;;;19.10;99.90;;;;;;5113121;28;20042;-63
2022/10/08 08:52:56;;;;;;;3.55;0.98;;;19.20;99.90;;;;;;5113279;28;20039;-63
2022/10/08 08:55:36;;;;;;;5.85;1.60;;;19.40;99.90;;;;;;5094424;28;20047;-63
2022/10/08 08:58:20;;;;;;;4.25;0.95;;;19.60;99.90;;;;;;5120382;27;20115;-63
2022/10/08 09:01:04;;;;;;;5.68;1.02;;;19.80;99.90;;;;;;5132219;27;20034;-64
2022/10/08 09:03:44;;;;;;;4.85;0.93;;;20.00;99.90;;;;;;5131173;27;20043;-64
2022/10/08 09:06:17;;;;;;;5.50;1.42;;;20.10;99.90;;;;;;5131222;27;20522;-64
2022/10/08 09:08:54;;;;;;;5.30;1.52;;;20.20;99.90;;;;;;5131061;27;20050;-65
2022/10/08 09:11:22;;;;;;;5.97;1.48;;;20.20;99.90;;;;;;5131140;28;20043;-65
2022/10/08 09:14:01;;;;;;;5.45;1.20;;;19.80;99.90;;;;;;5131218;28;20496;-64
2022/10/08 09:16:27;;;;;;;6.63;1.77;;;19.40;99.90;;;;;;5128917;28;20054;-63
2022/10/08 09:18:53;;;;;;;8.13;1.98;;;19.50;99.90;;;;;;5131237;28;20051;-64
2022/10/08 09:21:19;;;;;;;5.82;1.00;;;19.70;99.90;;;;;;5131220;28;20051;-65
2022/10/08 09:23:46;;;;;;;6.95;0.90;;;19.70;99.90;;;;;;5131263;28;20054;-64
2022/10/08 09:26:34;;;;;;;5.55;1.02;;;19.50;99.90;;;;;;5132625;27;20410;-63
2022/10/08 09:29:02;;;;;;;4.07;1.58;;;18.70;99.90;;;;;;5113759;28;20043;-64
2022/10/08 09:31:48;;;;;;;5.22;1.25;;;18.10;99.90;;;;;;5110387;28;20054;-63
2022/10/08 09:34:18;;;;;;;7.60;1.42;;;17.20;99.90;;;;;;5111923;28;20035;-63
2022/10/08 09:36:51;;;;;;;;;;;16.70;99.90;;;;;;5111184;28;20040;-63
2022/10/08 09:39:22;;;;;;;6.30;1.52;;;16.40;99.90;;;;;;5110745;28;19915;-63
2022/10/08 09:42:06;;;;;;;4.00;1.23;;;16.40;99.90;;;;;;5110267;28;20044;-64
2022/10/08 09:44:49;;;;;;;6.65;1.33;;;16.50;99.90;;;;;;5091477;28;20043;-64
2022/10/08 09:47:20;;;;;;;4.97;1.27;;;16.90;99.90;;;;;;5111464;28;20114;-64
2022/10/08 09:50:00;;;;;;;7.60;1.35;;;17.40;99.90;;;;;;5110136;28;20083;-63
2022/10/08 09:52:28;;;;;;;5.90;1.15;;;17.40;99.90;;;;;;5111477;28;20116;-64
2022/10/08 09:55:30;;;;;;;6.70;1.30;;;16.90;99.90;;;;;;5110432;28;20039;-63
2022/10/08 09:58:02;;;;;;;8.30;2.00;;;16.80;99.90;;;;;;5109950;28;20050;-64
2022/10/08 10:00:29;;;;;;;7.35;1.40;;;16.50;99.90;;;;;;5110417;28;20039;-64
2022/10/08 10:02:57;;;;;;;6.65;1.20;;;16.00;99.90;;;;;;5113526;28;20047;-64
2022/10/08 10:05:32;;;;;;;9.00;1.70;;;15.70;99.90;;;;;;5118930;28;20044;-64
2022/10/08 10:07:58;;;;;;;7.90;1.50;;;15.50;99.90;;;;;;5111634;28;20078;-63
2022/10/08 10:10:32;;;;;;;6.13;1.88;;;15.20;99.90;;;;;;5094412;27;20044;-62
2022/10/08 10:13:19;;;;;;;5.20;1.15;;;15.00;99.90;;;;;;5124471;27;20036;-63
2022/10/08 10:16:04;;;;;;;7.75;1.10;;;14.80;99.90;;;;;;5111127;28;20126;-63
2022/10/08 10:18:50;;;;;;;4.80;1.20;;;15.30;99.90;;;;;;5113918;28;20399;-64
2022/10/08 10:21:26;;;;;;;5.93;1.00;;;16.40;99.90;;;;;;5113859;28;20044;-63
2022/10/08 10:23:58;;;;;;;5.53;1.25;;;17.40;99.90;;;;;;5114977;28;20119;-64
2022/10/08 10:26:32;;;;;;;6.10;1.15;;;18.30;99.90;;;;;;5114754;28;20047;-64
2022/10/08 10:29:16;;;;;;;6.38;1.48;;;18.90;99.90;;;;;;5113863;27;20040;-64
2022/10/08 10:32:04;;;;;;;6.80;1.73;;;19.40;99.90;;;;;;5098221;27;20081;-63
2022/10/08 10:34:36;;;;;;;8.48;1.33;;;19.70;99.90;;;;;;5127089;27;20040;-63
2022/10/08 10:37:31;;;;;;;8.20;1.52;;;19.70;99.90;;;;;;5132056;27;20041;-62
2022/10/08 10:40:16;;;;;;;5.70;0.95;;;19.50;99.90;;;;;;5129995;27;20042;-63
2022/10/08 10:43:17;;;;;;;5.68;1.33;;;19.30;99.40;;;;;;5105591;27;20058;-63
2022/10/08 10:45:50;;;;;;;9.40;1.50;;;19.40;99.30;;;;;;5081483;27;20100;-63
2022/10/08 10:48:15;;;;;;;7.15;1.63;;;19.20;98.70;;;;;;5122411;27;20039;-63
2022/10/08 10:50:57;;;;;;;8.95;1.30;;;19.30;99.10;;;;;;5112615;28;20050;-65
2022/10/08 10:53:56;;;;;;;4.78;1.00;;;19.40;98.60;;;;;;5130595;27;20051;-63
2022/10/08 10:56:34;;;;;;;5.57;1.40;;;19.20;98.50;;;;;;5132451;27;20051;-63
2022/10/08 10:58:59;;;;;;;7.95;1.20;;;18.60;97.80;;;;;;5132990;27;20038;-63
2022/10/08 11:01:47;;;;;;;4.88;1.00;;;18.10;98.40;;;;;;5127162;27;20100;-63
2022/10/08 11:04:51;;;;;;;6.88;1.13;;;17.40;98.80;;;;;;5131086;27;20043;-64
2022/10/08 11:07:29;;;;;;;7.20;1.30;;;17.30;99.40;;;;;;5102738;27;20047;-63
2022/10/08 11:10:39;;;;;;;6.20;1.35;;;17.00;99.50;;;;;;5120340;27;20071;-62
2022/10/08 11:13:43;;;;;;;6.93;1.17;;;16.80;99.40;;;;;;5015432;28;20033;-62
2022/10/08 11:16:17;;;;;;;6.45;1.60;;;16.90;99.60;;;;;;5046072;28;20029;-63
2022/10/08 11:19:05;;;;;;;6.80;1.75;;;17.30;99.20;;;;;;5113146;27;20082;-63
2022/10/08 11:21:46;;;;;;;9.95;1.30;;;17.60;98.10;;;;;;5131466;27;20043;-63
2022/10/08 11:24:27;;;;;;;8.40;1.08;;;17.50;98.10;;;;;;5132000;27;20087;-63
2022/10/08 11:27:11;;;;;;;7.78;1.60;;;17.40;98.30;;;;;;5133751;27;20055;-63
2022/10/08 11:29:48;;;;;;;8.15;1.13;;;17.30;98.60;;;;;;5120104;27;20039;-63
2022/10/08 11:32:16;;;;;;;8.57;1.67;;;17.20;98.40;;;;;;5130045;27;20035;-63
2022/10/08 11:34:53;;;;;;;7.63;2.20;;;17.10;98.70;;;;;;5111646;28;20031;-63
2022/10/08 11:37:41;;;;;;;5.53;1.60;;;17.00;98.90;;;;;;5115793;27;20077;-63
2022/10/08 11:40:25;;;;;;;9.23;3.13;;;16.90;99.40;;;;;;5132535;27;20060;-62
2022/10/08 11:43:29;;;;;;;8.60;2.92;;;17.10;99.50;;;;;;5126449;27;20368;-63
2022/10/08 11:46:29;;;;;;;7.53;1.48;;;17.00;99.90;;;;;;5128971;27;20348;-63
2022/10/08 11:48:57;;;;;;;6.63;1.48;;;17.00;99.90;;;;;;5131577;27;20050;-62
2022/10/08 11:51:23;;;;;;;7.25;1.60;;;17.00;99.90;;;;;;5131471;27;20370;-63
2022/10/08 11:54:14;;;;;;;8.98;1.45;;;17.20;99.90;;;;;;5132886;27;20035;-63
2022/10/08 11:57:08;;;;;;;4.97;1.15;;;17.30;99.90;;;;;;5131346;27;20071;-62
2022/10/08 11:59:56;;;;;;;7.13;2.22;;;17.30;99.90;;;;;;5131282;27;20569;-62
2022/10/08 12:02:35;;;;;;;7.53;1.20;;;17.70;99.90;;;;;;5114683;27;20100;-63
2022/10/08 12:05:23;;;;;;;5.30;1.48;;;17.60;99.90;;;;;;5128066;27;20040;-63
2022/10/08 12:07:51;;;;;;;6.22;1.40;;;17.60;99.90;;;;;;5129701;27;20039;-64
2022/10/08 12:10:30;;;;;;;10.13;1.30;;;17.50;98.80;;;;;;5114263;27;20031;-62
2022/10/08 12:13:00;;;;;;;7.50;1.10;;;17.10;98.00;;;;;;5124912;27;20031;-63
2022/10/08 12:15:37;;;;;;;4.35;1.02;;;16.90;98.90;;;;;;5113263;27;20055;-63
2022/10/08 12:18:10;;;;;;;5.32;1.23;;;16.90;99.90;;;;;;5130644;27;20039;-63
2022/10/08 12:20:39;;;;;;;5.68;1.70;;;17.00;99.90;;;;;;5127297;27;20607;-62
2022/10/08 12:23:20;;;;;;;8.85;1.58;;;16.90;99.90;;;;;;5131162;27;20034;-62
2022/10/08 12:25:59;;;;;;;8.45;1.90;;;16.60;99.90;;;;;;5123807;27;20436;-63
2022/10/08 12:28:28;;;;;;;6.53;1.40;;;16.20;99.60;;;;;;5114509;27;20063;-62
2022/10/08 12:31:00;;;;;;;7.18;1.67;;;16.00;99.90;;;;;;5114767;27;20042;-62
2022/10/08 12:33:27;;;;;;;7.65;1.30;;;16.10;99.90;;;;;;5111539;28;20051;-62
2022/10/08 12:36:11;;;;;;;6.93;2.08;;;16.00;99.50;;;;;;5111877;28;20039;-62
2022/10/08 12:38:52;;;;;;;10.05;1.40;;;16.00;99.90;;;;;;5111310;28;20130;-62
2022/10/08 12:41:29;;;;;;;5.65;1.00;;;16.00;99.90;;;;;;5131139;27;20086;-62
2022/10/08 12:44:06;;;;;;;10.77;1.40;;;16.10;99.90;;;;;;5131253;27;20046;-62
2022/10/08 12:47:25;;;;;;;13.85;1.75;;;16.10;99.90;;;;;;5130265;27;20047;-62
2022/10/08 12:50:04;;;;;;;6.30;1.35;;;16.10;99.90;;;;;;5079381;27;20121;-62
2022/10/08 12:52:35;;;;;;;8.57;1.60;;;16.20;99.90;;;;;;5124518;27;20425;-62
2022/10/08 12:55:03;;;;;;;3.83;1.23;;;16.30;99.90;;;;;;5126785;27;20047;-62
2022/10/08 12:57:37;;;;;;;6.38;1.00;;;16.30;99.50;;;;;;5127837;27;20353;-62
2022/10/08 13:00:09;;;;;;;6.18;1.10;;;16.30;98.80;;;;;;5127514;27;20061;-63
2022/10/08 13:02:37;;;;;;;7.38;1.60;;;16.20;99.20;;;;;;5129890;27;20125;-63
2022/10/08 13:05:21;;;;;;;7.93;1.50;;;16.10;99.90;;;;;;5129671;27;20039;-62
2022/10/08 13:07:47;;;;;;;5.88;0.90;;;16.20;99.90;;;;;;5128403;27;20126;-63
2022/10/08 13:10:20;;;;;;;5.43;1.02;;;16.20;99.90;;;;;;5127586;27;20149;-62
2022/10/08 13:12:59;;;;;;;3.80;0.65;;;16.00;99.60;;;;;;5130330;27;20097;-63